»·PEaware :: N62GK KSNA-KBUR

N62GK :: KSNA-KBUR

FLIGHT INFORMATION

Flight Status: Arrived
Operator: Privately registered:
United States
More flights under this callsign
Pilot: Chris R. (22860)
Aircraft: CESSNA 172 SKYHAWK
(C172)
More flights by this aircraft type
Origin: KSNA John Wayne-Orange Co
United States
Destination: KBUR Bob Hope-Burbank
United States
More flights between these airports :: More routes between these airports
Route: SLI V23 POPPR SMO125 SMO SMO311 SILEX
File this flight plan on PilotEdge
Remarks: I-3
Altitude:
(Current/Filed)
4,000ft
Speed:
(Current/Filed)
115kts
Departed: 11-Jan-19 01:03 PM
Arrived: 11-Jan-19 01:36 PM
Distance/Time
Traveled:
40nm/0:33
Distance/Time
To Go:
Arrived

Flight Plot

Page will automatically refresh every two minutes.


Map Options




Map Legend


Flown Route
Filed Route
Departure Airport
Arrival Airport
Navaid (VOR, NDB)
Fix

Horizontal Profiles

Position Reports

Time Latitude Longitude Heading Altitude Ground
Speed
11-Jan-19 12:47 33.671189 -117.868027 211 60ft 0kts
11-Jan-19 12:48 33.671189 -117.868027 211 60ft 0kts
11-Jan-19 12:49 33.671189 -117.868027 211 60ft 0kts
11-Jan-19 12:50 33.671189 -117.868027 211 60ft 0kts
11-Jan-19 12:51 33.671189 -117.868027 211 60ft 0kts
11-Jan-19 12:52 33.671189 -117.868027 211 60ft 0kts
11-Jan-19 12:53 33.671189 -117.868027 211 60ft 0kts
11-Jan-19 12:54 33.671189 -117.868027 211 60ft 0kts
11-Jan-19 12:55 33.671189 -117.868027 211 60ft 0kts
11-Jan-19 12:56 33.673426 -117.866980 7 60ft 16kts
11-Jan-19 12:57 33.676946 -117.865288 27 60ft 13kts
11-Jan-19 12:58 33.679950 -117.863583 299 60ft 4kts
11-Jan-19 12:59 33.679953 -117.863591 299 60ft 0kts
11-Jan-19 13:00 33.679953 -117.863591 299 60ft 0kts
11-Jan-19 13:01 33.679953 -117.863591 299 60ft 0kts
11-Jan-19 13:02 33.678299 -117.865262 209 60ft 56kts
11-Jan-19 13:03 33.664565 -117.884301 244 1030ft 81kts
11-Jan-19 13:04 33.652536 -117.911291 240 1795ft 110kts
11-Jan-19 13:05 33.638156 -117.945882 241 2273ft 124kts
11-Jan-19 13:06 33.619535 -117.984271 238 2291ft 134kts
11-Jan-19 13:07 33.620594 -118.023083 313 2648ft 115kts
11-Jan-19 13:08 33.642847 -118.054392 317 3010ft 122kts
11-Jan-19 13:09 33.665894 -118.085321 306 3426ft 124kts
11-Jan-19 13:10 33.690861 -118.116043 322 3770ft 125kts
11-Jan-19 13:11 33.715802 -118.146860 309 4074ft 127kts
11-Jan-19 13:12 33.742499 -118.176021 325 4197ft 132kts
11-Jan-19 13:13 33.772689 -118.200914 334 4094ft 141kts
11-Jan-19 13:14 33.799078 -118.224782 300 3939ft 140kts
11-Jan-19 13:15 33.810970 -118.263738 294 3938ft 133kts
11-Jan-19 13:16 33.832836 -118.287701 323 3993ft 125kts
11-Jan-19 13:17 33.856380 -118.308455 326 4087ft 121kts
11-Jan-19 13:18 33.880628 -118.328747 316 4151ft 124kts
11-Jan-19 13:19 33.903693 -118.353977 326 4214ft 126kts
11-Jan-19 13:20 33.928768 -118.376337 320 4081ft 137kts
11-Jan-19 13:21 33.957093 -118.404259 321 4035ft 135kts
11-Jan-19 13:22 33.982691 -118.437312 313 4036ft 137kts
11-Jan-19 13:23 34.012984 -118.465123 327 4068ft 133kts
11-Jan-19 13:24 34.046578 -118.490474 328 4008ft 137kts
11-Jan-19 13:25 34.082615 -118.517190 333 4048ft 135kts
11-Jan-19 13:26 34.119646 -118.544969 333 4035ft 140kts
11-Jan-19 13:27 34.155280 -118.568733 333 4049ft 139kts
11-Jan-19 13:28 34.189214 -118.589854 7 3910ft 130kts
11-Jan-19 13:29 34.204381 -118.553872 93 2920ft 111kts
11-Jan-19 13:30 34.197458 -118.521529 91 2783ft 85kts
11-Jan-19 13:31 34.198687 -118.493747 81 2725ft 77kts
11-Jan-19 13:32 34.197213 -118.457158 95 2204ft 136kts
11-Jan-19 13:33 34.198398 -118.413423 84 1475ft 129kts
11-Jan-19 13:34 34.197992 -118.376638 85 963ft 86kts
11-Jan-19 13:35 34.197768 -118.359269 88 713ft 28kts
11-Jan-19 13:36 34.196969 -118.357989 175 709ft 0kts
11-Jan-19 13:38 34.196969 -118.357989 175 709ft 0kts
11-Jan-19 13:39 34.196969 -118.357989 175 709ft 0kts
11-Jan-19 13:40 34.196856 -118.357973 171 709ft 7kts
11-Jan-19 13:41 34.195643 -118.358760 281 708ft 0kts
11-Jan-19 13:42 34.195643 -118.358760 281 708ft 0kts

Navigation Log

Ident Type
Flight plan parsing failed, navigation log unavailable